Time;durP1;ratioP1;P1;durP2;ratioP2;P2;SDS_P1;SDS_P2;PMS_P1;PMS_P2;Temp;Humidity;BMP_temperature;BMP_pressure;BME280_temperature;BME280_humidity;BME280_pressure;Samples;Min_cycle;Max_cycle;Signal;HPM_P1;HPM_P2
2021/10/25 00:01:04;;;;;;;;;40.50;36.50;;;;;12.67;59.14;101584.63;5030977;28;45395;-65
2021/10/25 00:03:30;;;;;;;;;35.00;33.25;;;;;12.70;59.07;101592.56;5033623;28;45926;-65
2021/10/25 00:05:55;;;;;;;;;32.75;32.50;;;;;12.49;59.13;101556.53;5035279;28;48312;-65
2021/10/25 00:08:20;;;;;;;;;38.75;35.25;;;;;12.72;58.99;101600.56;5035080;28;45355;-65
2021/10/25 00:10:46;;;;;;;;;37.75;33.00;;;;;12.60;59.06;101570.53;5040717;28;46131;-65
2021/10/25 00:13:12;;;;;;;;;39.50;34.75;;;;;12.66;58.92;101587.34;5048461;28;45334;-65
2021/10/25 00:15:37;;;;;;;;;12.25;10.50;;;;;12.44;58.95;101550.44;5057557;28;45427;-65
2021/10/25 00:18:04;;;;;;;;;30.75;26.25;;;;;12.47;59.05;101558.38;5057999;28;45444;-65
2021/10/25 00:20:30;;;;;;;;;37.00;33.00;;;;;12.59;58.79;101575.91;5040850;28;45382;-65
2021/10/25 00:22:56;;;;;;;;;34.00;33.00;;;;;12.58;59.00;101576.84;5041207;28;45336;-65
2021/10/25 00:25:21;;;;;;;;;32.25;32.25;;;;;12.46;59.17;101556.63;5042738;28;45244;-65
2021/10/25 00:27:47;;;;;;;;;40.25;33.25;;;;;12.64;58.92;101583.84;5022325;28;45881;-65
2021/10/25 00:30:13;;;;;;;;;36.75;32.50;;;;;12.57;59.04;101567.91;5054124;28;45563;-65
2021/10/25 00:32:39;;;;;;;;;36.75;33.75;;;;;12.44;59.01;101547.75;5039257;28;45656;-65
2021/10/25 00:35:06;;;;;;;;;37.25;32.50;;;;;12.57;58.89;101575.97;5060388;28;45355;-65
2021/10/25 00:37:31;;;;;;;;;28.50;27.00;;;;;12.47;58.97;101544.13;5041430;28;45806;-65
2021/10/25 00:39:57;;;;;;;;;29.75;28.00;;;;;12.60;58.89;101567.84;5053620;28;45337;-65
2021/10/25 00:42:23;;;;;;;;;29.25;27.75;;;;;12.65;58.67;101577.56;5040574;28;45534;-65
2021/10/25 00:44:49;;;;;;;;;28.75;28.75;;;;;12.62;58.46;101572.28;5053375;28;45444;-65
2021/10/25 00:47:14;;;;;;;;;27.25;24.50;;;;;12.51;58.70;101545.78;5041433;28;45330;-65
2021/10/25 00:49:39;;;;;;;;;26.25;24.75;;;;;12.50;58.17;101550.28;5017608;28;45402;-65
2021/10/25 00:52:05;;;;;;;;;30.25;26.50;;;;;12.38;58.48;101529.19;5053647;28;45453;-65
2021/10/25 00:54:34;;;;;;;;;27.00;26.00;;;;;12.44;58.44;101539.72;5048729;28;46184;-66
2021/10/25 00:56:59;;;;;;;;;24.00;21.50;;;;;12.42;58.18;101534.41;5047554;28;45466;-65
2021/10/25 00:59:24;;;;;;;;;28.75;24.25;;;;;12.43;58.28;101546.03;5047497;28;45482;-65
2021/10/25 01:01:50;;;;;;;;;27.25;23.75;;;;;12.39;58.34;101531.81;5029969;28;45351;-65
2021/10/25 01:04:16;;;;;;;;;24.50;22.25;;;;;12.36;58.54;101522.97;5059253;28;46163;-65
2021/10/25 01:06:42;;;;;;;;;30.75;25.50;;;;;12.57;58.11;101559.03;5041248;28;45827;-65
2021/10/25 01:09:09;;;;;;;;;31.25;27.50;;;;;12.38;58.15;101529.19;5040100;28;45256;-65
2021/10/25 01:11:36;;;;;;;;;23.50;23.00;;;;;12.54;58.04;101562.66;5006441;28;45928;-65
2021/10/25 01:14:02;;;;;;;;;23.25;22.00;;;;;12.61;58.01;101571.38;5053158;28;45522;-66
2021/10/25 01:16:28;;;;;;;;;29.50;24.50;;;;;12.50;58.21;101555.63;5039981;28;45739;-65
2021/10/25 01:18:55;;;;;;;;;27.00;25.00;;;;;12.59;58.16;101574.09;5041186;28;45384;-65
2021/10/25 01:21:21;;;;;;;;;26.00;24.00;;;;;12.58;58.50;101566.16;5035172;28;45443;-65
2021/10/25 01:23:46;;;;;;;;;25.25;24.75;;;;;12.51;57.64;101557.41;5045326;28;45640;-65
2021/10/25 01:26:14;;;;;;;;;29.75;26.25;;;;;12.46;58.18;101553.06;5049385;28;45410;-65
2021/10/25 01:28:41;;;;;;;;;25.50;24.75;;;;;12.34;58.11;101535.53;5039819;28;45168;-65
2021/10/25 01:31:06;;;;;;;;;27.00;25.50;;;;;12.41;58.07;101542.47;5056116;28;45873;-65
2021/10/25 01:33:33;;;;;;;;;29.00;26.75;;;;;12.32;58.10;101529.34;5046645;28;45290;-65
2021/10/25 01:35:59;;;;;;;;;23.25;23.00;;;;;12.37;58.30;101540.81;5039282;28;45680;-65
2021/10/25 01:38:24;;;;;;;;;26.25;21.25;;;;;12.29;57.97;101530.31;5040536;28;45348;-65
2021/10/25 01:40:50;;;;;;;;;26.25;24.25;;;;;12.61;58.14;101582.09;5038471;28;45493;-65
2021/10/25 01:43:15;;;;;;;;;25.50;22.75;;;;;12.44;58.17;101545.06;5059654;28;45453;-65
2021/10/25 01:45:40;;;;;;;;;26.00;24.75;;;;;12.57;58.30;101569.72;5046138;28;45427;-65
2021/10/25 01:48:07;;;;;;;;;26.25;25.00;;;;;12.31;58.18;101517.78;5041488;28;45426;-65
2021/10/25 01:50:33;;;;;;;;;24.00;18.75;;;;;12.29;58.11;101521.41;5041497;28;45485;-65
2021/10/25 01:53:01;;;;;;;;;24.00;21.75;;;;;12.36;57.97;101536.38;5039198;28;45683;-65
2021/10/25 01:55:26;;;;;;;;;24.75;22.50;;;;;12.26;58.46;101510.78;5028721;28;46259;-65
2021/10/25 01:57:52;;;;;;;;;23.75;22.25;;;;;12.48;57.96;101536.06;5039715;28;45453;-65
2021/10/25 02:00:18;;;;;;;;;24.75;24.00;;;;;12.57;58.22;101540.28;5047394;28;45725;-65
2021/10/25 02:02:44;;;;;;;;;18.75;17.50;;;;;12.43;58.51;101524.59;5044450;28;45528;-65
2021/10/25 02:05:09;;;;;;;;;21.00;19.25;;;;;12.36;58.42;101510.50;5033002;28;45459;-65
2021/10/25 02:07:35;;;;;;;;;24.75;23.25;;;;;12.57;58.10;101545.63;5051497;28;45314;-65
2021/10/25 02:10:00;;;;;;;;;25.75;24.25;;;;;12.57;57.96;101551.84;5041432;28;45320;-65
2021/10/25 02:12:27;;;;;;;;;25.75;23.50;;;;;12.36;58.26;101509.59;5037949;28;46562;-65
2021/10/25 02:14:52;;;;;;;;;24.75;21.00;;;;;12.45;58.32;101520.06;5040085;28;45824;-65
2021/10/25 02:17:17;;;;;;;;;26.75;26.75;;;;;12.41;58.37;101508.56;5041130;28;45272;-65
2021/10/25 02:19:43;;;;;;;;;23.00;21.50;;;;;12.45;58.31;101519.19;5052832;28;45509;-65
2021/10/25 02:22:08;;;;;;;;;21.75;21.00;;;;;12.32;57.95;101494.56;5033567;28;47641;-65
2021/10/25 02:24:35;;;;;;;;;25.75;23.00;;;;;12.59;58.71;101535.75;5029457;28;45348;-65
2021/10/25 02:27:03;;;;;;;;;27.00;24.00;;;;;12.60;58.39;101535.69;5059297;28;45252;-65
2021/10/25 02:29:35;;;;;;;;;21.50;20.50;;;;;12.45;58.36;101495.09;5025527;28;45646;-65
2021/10/25 02:32:01;;;;;;;;;27.00;24.25;;;;;12.45;58.23;101493.28;5038339;28;48223;-65
2021/10/25 02:34:26;;;;;;;;;23.75;21.75;;;;;12.56;58.49;101511.72;5032670;28;45744;-65
2021/10/25 02:36:52;;;;;;;;;21.50;20.75;;;;;12.51;58.44;101502.94;5034212;28;45313;-65
2021/10/25 02:39:18;;;;;;;;;24.50;20.00;;;;;12.66;58.04;101533.78;5059085;28;45539;-65
2021/10/25 02:41:43;;;;;;;;;20.50;20.00;;;;;12.71;58.39;101529.16;5043981;28;45371;-65
2021/10/25 02:44:09;;;;;;;;;20.75;18.25;;;;;12.56;58.30;101493.88;5040821;28;45345;-65
2021/10/25 02:46:34;;;;;;;;;21.00;19.00;;;;;12.61;58.30;101509.78;5027487;28;45399;-65
2021/10/25 02:49:00;;;;;;;;;17.25;16.00;;;;;12.55;57.98;101496.59;5051176;28;45404;-65
2021/10/25 02:51:26;;;;;;;;;18.25;17.00;;;;;12.63;57.83;101488.31;5056704;28;45543;-65
2021/10/25 02:53:51;;;;;;;;;19.50;16.00;;;;;12.47;57.76;101472.69;5053742;28;45486;-65
2021/10/25 02:56:16;;;;;;;;;17.00;17.00;;;;;12.64;58.03;101492.75;5042149;28;45454;-65
2021/10/25 02:58:42;;;;;;;;;17.00;16.25;;;;;12.50;57.94;101472.63;5039854;28;45486;-65
2021/10/25 03:01:08;;;;;;;;;19.25;18.25;;;;;12.65;57.88;101489.19;5027417;28;48168;-65
2021/10/25 03:03:33;;;;;;;;;17.75;15.75;;;;;12.65;57.84;101486.50;5044017;28;45360;-65
2021/10/25 03:05:58;;;;;;;;;17.50;15.75;;;;;12.65;57.68;101479.31;5058957;28;45282;-65
2021/10/25 03:08:24;;;;;;;;;16.25;16.00;;;;;12.58;57.74;101473.28;5032731;28;45373;-65
2021/10/25 03:10:49;;;;;;;;;19.50;18.25;;;;;12.81;57.71;101506.53;5029409;28;47140;-65
2021/10/25 03:13:15;;;;;;;;;16.50;15.75;;;;;12.59;57.80;101476.81;5060400;28;45220;-65
2021/10/25 03:15:40;;;;;;;;;14.75;13.50;;;;;12.70;57.86;101496.13;5046538;28;45450;-65
2021/10/25 03:18:06;;;;;;;;;19.50;17.50;;;;;12.60;57.73;101479.47;5060954;28;45161;-65
2021/10/25 03:20:31;;;;;;;;;19.25;16.75;;;;;12.81;57.82;101514.56;5048622;28;45252;-65
2021/10/25 03:22:57;;;;;;;;;19.75;19.50;;;;;12.74;57.78;101499.59;5041420;28;45316;-65
2021/10/25 03:25:22;;;;;;;;;21.75;19.25;;;;;12.63;57.94;101486.53;5040685;28;45984;-65
2021/10/25 03:27:48;;;;;;;;;19.00;19.00;;;;;12.67;57.91;101490.00;5040945;28;45968;-65
2021/10/25 03:30:14;;;;;;;;;23.25;21.25;;;;;12.83;58.05;101507.38;5032744;28;47127;-65
2021/10/25 03:32:41;;;;;;;;;18.75;18.75;;;;;12.87;57.98;101519.75;5027223;28;45341;-65
2021/10/25 03:35:06;;;;;;;;;22.00;17.25;;;;;12.77;57.90;101502.19;5054801;28;45367;-65
2021/10/25 03:37:34;;;;;;;;;19.50;19.50;;;;;12.64;58.02;101479.38;5036804;28;45475;-65
2021/10/25 03:40:00;;;;;;;;;19.00;18.00;;;;;12.62;58.13;101481.22;5024003;28;48287;-65
2021/10/25 03:42:29;;;;;;;;;22.50;22.25;;;;;12.77;57.93;101505.75;5041755;28;45440;-65
2021/10/25 03:47:39;;;;;;;;;21.25;21.25;;;;;12.61;58.10;101485.69;5051827;28;45335;-65
2021/10/25 03:52:41;;;;;;;;;26.50;24.50;;;;;12.60;58.00;101473.22;5058959;28;45409;-65
2021/10/25 03:55:23;;;;;;;;;23.00;20.50;;;;;12.86;57.87;101517.13;5042237;28;45536;-65
2021/10/25 04:27:58;;;;;;;;;16.75;14.75;;;;;12.56;60.57;101463.50;5050694;28;45464;-65
2021/10/25 04:30:23;;;;;;;;;17.75;17.00;;;;;12.61;61.00;101485.69;5047438;28;45404;-65
2021/10/25 04:32:49;;;;;;;;;15.25;14.25;;;;;12.57;61.17;101479.53;5035217;28;46970;-65
2021/10/25 04:35:15;;;;;;;;;16.75;16.75;;;;;12.62;61.35;101486.59;5040061;28;45415;-65
2021/10/25 04:37:41;;;;;;;;;18.00;18.00;;;;;12.56;61.58;101471.53;5034667;28;45229;-65
2021/10/25 04:40:08;;;;;;;;;17.75;17.00;;;;;12.58;61.48;101481.31;5040426;28;45291;-65
2021/10/25 04:42:34;;;;;;;;;19.00;17.00;;;;;12.75;61.74;101507.59;5022518;28;47329;-65
2021/10/25 04:45:00;;;;;;;;;15.75;15.75;;;;;12.74;61.98;101497.78;5022371;28;45789;-65
2021/10/25 04:47:25;;;;;;;;;14.50;14.50;;;;;12.71;61.93;101505.03;5041673;28;45641;-65
2021/10/25 04:49:51;;;;;;;;;14.50;14.25;;;;;12.69;61.88;101497.06;5041261;28;46138;-65
2021/10/25 04:52:16;;;;;;;;;21.00;17.75;;;;;12.51;62.15;101468.13;5053087;28;45257;-65
2021/10/25 04:54:43;;;;;;;;;19.25;17.00;;;;;12.63;62.45;101485.63;5040124;28;45317;-65
2021/10/25 04:57:08;;;;;;;;;23.25;21.25;;;;;12.63;62.57;101489.22;5040463;28;45238;-65
2021/10/25 04:59:33;;;;;;;;;22.75;18.50;;;;;12.59;63.10;101498.25;5040225;28;45159;-65
2021/10/25 05:01:59;;;;;;;;;24.50;22.00;;;;;12.57;62.44;101490.25;5041482;28;46304;-65
2021/10/25 05:04:25;;;;;;;;;27.00;23.50;;;;;12.53;62.80;101487.69;5039923;28;45898;-65
2021/10/25 05:06:50;;;;;;;;;23.25;21.50;;;;;12.31;62.72;101452.63;5041246;28;45377;-66
2021/10/25 05:09:16;;;;;;;;;22.25;20.50;;;;;12.66;62.70;101504.31;5041790;28;45154;-65
2021/10/25 05:11:42;;;;;;;;;24.75;23.00;;;;;12.35;62.79;101460.53;5040642;28;47628;-65
2021/10/25 05:14:08;;;;;;;;;25.00;22.25;;;;;12.40;62.82;101466.63;5037229;28;45426;-65
2021/10/25 05:16:33;;;;;;;;;26.00;22.75;;;;;12.44;62.93;101480.81;5046993;28;45477;-65
2021/10/25 05:18:59;;;;;;;;;20.00;19.25;;;;;12.34;62.87;101452.53;5046707;28;45455;-66
2021/10/25 05:21:25;;;;;;;;;26.25;23.00;;;;;12.53;63.00;101485.91;5040944;28;47138;-65
2021/10/25 05:23:51;;;;;;;;;25.00;22.25;;;;;12.31;63.11;101457.97;5039461;28;45848;-65
2021/10/25 05:26:17;;;;;;;;;24.25;23.75;;;;;12.57;63.22;101506.31;5049261;28;45413;-65
2021/10/25 05:28:42;;;;;;;;;26.75;25.50;;;;;12.35;63.09;101471.25;5040519;28;45606;-66
2021/10/25 05:31:11;;;;;;;;;25.75;21.50;;;;;12.27;63.13;101449.16;5046068;28;46196;-65
2021/10/25 05:33:37;;;;;;;;;26.50;24.25;;;;;12.26;63.12;101452.75;5041522;28;45265;-65
2021/10/25 05:36:04;;;;;;;;;20.00;20.00;;;;;12.47;62.93;101482.53;5041452;28;45248;-67
2021/10/25 05:38:29;;;;;;;;;19.75;19.75;;;;;12.28;63.46;101436.66;5044990;28;45544;-68
2021/10/25 05:40:55;;;;;;;;;24.25;22.25;;;;;12.33;63.51;101448.09;5039735;28;46109;-66
2021/10/25 05:43:20;;;;;;;;;21.00;21.00;;;;;12.48;63.34;101471.78;5034916;28;45336;-66
2021/10/25 05:45:46;;;;;;;;;26.25;23.50;;;;;12.41;63.60;101463.06;5039461;28;45443;-68
2021/10/25 05:48:11;;;;;;;;;17.50;16.50;;;;;12.26;63.80;101441.19;5036132;28;45548;-68
2021/10/25 05:50:37;;;;;;;;;18.75;18.75;;;;;12.29;63.34;101444.63;5033370;28;47852;-68
2021/10/25 05:53:03;;;;;;;;;20.00;16.50;;;;;12.33;63.78;101457.03;5052062;28;45498;-68
2021/10/25 05:55:30;;;;;;;;;24.00;21.50;;;;;12.33;63.28;101462.38;5051830;28;45237;-68
2021/10/25 05:57:56;;;;;;;;;20.75;19.75;;;;;12.45;63.28;101479.91;5014762;28;45960;-68
2021/10/25 06:00:27;;;;;;;;;28.50;25.00;;;;;12.32;63.34;101457.06;5029836;28;47935;-67
2021/10/25 06:02:54;;;;;;;;;24.00;24.00;;;;;12.41;63.64;101471.09;5038496;28;45804;-68
2021/10/25 06:05:21;;;;;;;;;16.50;16.50;;;;;12.26;63.61;101442.03;5039662;28;45415;-68
2021/10/25 06:07:48;;;;;;;;;22.75;20.50;;;;;12.25;63.44;101447.47;5045242;28;45174;-72
2021/10/25 06:10:14;;;;;;;;;19.50;18.00;;;;;12.36;63.56;101467.66;5050200;28;46393;-69
2021/10/25 06:12:43;;;;;;;;;24.75;19.50;;;;;12.37;63.58;101469.41;5028326;28;45580;-69
2021/10/25 06:15:19;;;;;;;;;20.25;20.25;;;;;12.27;63.75;101445.63;5040116;28;45342;-69
2021/10/25 06:17:55;;;;;;;;;17.25;17.25;;;;;12.18;63.81;101425.34;5039486;28;45257;-70
2021/10/25 06:20:24;;;;;;;;;21.25;20.50;;;;;12.36;63.83;101469.44;5027630;28;47530;-69
2021/10/25 06:22:50;;;;;;;;;21.25;19.75;;;;;12.23;63.75;101443.03;5027923;28;45669;-69
2021/10/25 06:25:16;;;;;;;;;16.25;15.50;;;;;12.21;64.30;101457.34;5055948;28;45544;-69
2021/10/25 06:27:42;;;;;;;;;20.50;19.25;;;;;12.21;64.06;101465.38;5055446;28;45494;-69
2021/10/25 06:30:09;;;;;;;;;19.75;19.25;;;;;12.20;63.85;101458.31;5046878;28;46715;-69
2021/10/25 06:32:35;;;;;;;;;24.50;18.00;;;;;12.11;64.41;101445.16;5030683;28;45262;-69
2021/10/25 06:35:15;;;;;;;;;23.50;21.75;;;;;12.40;64.08;101488.06;5049518;28;45723;-66
2021/10/25 06:38:02;;;;;;;;;20.25;20.25;;;;;12.29;64.34;101460.69;5055552;28;46224;-66
2021/10/25 06:40:54;;;;;;;;;26.00;24.25;;;;;12.15;63.92;101438.81;5044449;28;46429;-66
2021/10/25 06:43:22;;;;;;;;;21.75;20.50;;;;;12.43;64.21;101503.19;5046029;28;45461;-66
2021/10/25 06:45:50;;;;;;;;;22.75;22.25;;;;;12.12;64.32;101449.59;5054714;28;45616;-66
2021/10/25 06:48:16;;;;;;;;;19.00;16.25;;;;;12.16;64.51;101470.91;5054688;28;45405;-67
2021/10/25 06:50:41;;;;;;;;;19.50;19.50;;;;;12.33;64.56;101488.25;5043237;28;46569;-65
2021/10/25 06:53:07;;;;;;;;;19.00;19.00;;;;;12.40;64.49;101497.91;5032449;28;45327;-66
2021/10/25 06:55:34;;;;;;;;;17.50;17.50;;;;;12.35;64.49;101483.75;5033149;28;45213;-66
2021/10/25 06:58:00;;;;;;;;;21.75;18.00;;;;;12.31;64.53;101487.44;5055268;28;45347;-66
2021/10/25 07:00:26;;;;;;;;;23.75;21.25;;;;;12.41;64.61;101502.31;5049351;28;46070;-66
2021/10/25 07:02:52;;;;;;;;;22.75;21.75;;;;;12.38;64.36;101500.63;5057815;28;45436;-66
2021/10/25 07:05:17;;;;;;;;;18.75;17.00;;;;;12.33;64.72;101497.19;5050385;28;45424;-66
2021/10/25 07:07:43;;;;;;;;;21.50;17.75;;;;;12.43;64.61;101513.88;5038748;28;45438;-66
2021/10/25 07:10:10;;;;;;;;;20.50;20.50;;;;;12.48;64.65;101522.66;5039581;28;45554;-66
2021/10/25 07:12:35;;;;;;;;;19.75;18.25;;;;;12.41;64.64;101491.59;5047469;28;45622;-66
2021/10/25 07:15:01;;;;;;;;;17.50;17.50;;;;;12.30;65.23;101485.69;5037235;28;45329;-66
2021/10/25 07:20:20;;;;;;;;;20.00;18.25;;;;;12.41;65.15;101505.00;5060183;28;46096;-66
2021/10/25 08:01:39;;;;;;;;;16.50;16.25;;;;;12.59;66.49;101519.66;5048739;28;45653;-67
2021/10/25 08:09:11;;;;;;;;;16.00;15.50;;;;;12.65;66.64;101522.19;5050605;28;45340;-67
2021/10/25 08:11:49;;;;;;;;;16.50;16.50;;;;;12.61;66.62;101525.84;5053679;28;45315;-67
2021/10/25 08:14:15;;;;;;;;;19.00;19.00;;;;;12.66;66.67;101531.09;5040075;28;46377;-67
2021/10/25 08:16:43;;;;;;;;;17.50;17.00;;;;;12.64;66.78;101519.53;5030318;28;45360;-67
2021/10/25 08:21:48;;;;;;;;;22.75;18.50;;;;;12.73;67.10;101535.34;5052580;28;45359;-67
2021/10/25 08:24:14;;;;;;;;;18.00;15.75;;;;;12.54;66.69;101492.16;5043857;28;45451;-67
2021/10/25 08:26:40;;;;;;;;;25.50;19.00;;;;;12.68;66.89;101508.72;5053634;28;45549;-66
2021/10/25 08:29:05;;;;;;;;;20.25;17.00;;;;;12.73;66.56;101520.16;5025074;28;45565;-67
2021/10/25 08:31:34;;;;;;;;;17.75;15.50;;;;;12.74;66.88;101515.69;5049916;28;45490;-67
2021/10/25 08:34:25;;;;;;;;;20.75;17.00;;;;;12.87;66.45;101527.78;5055498;28;46588;-67
2021/10/25 08:39:47;;;;;;;;;21.25;18.75;;;;;12.93;66.20;101514.22;5049801;28;45444;-66
2021/10/25 08:42:23;;;;;;;;;16.75;16.25;;;;;12.93;66.02;101516.91;5046120;28;45478;-69
2021/10/25 09:40:48;;;;;;;;;;;;;;;;;;;;;
2021/10/25 10:33:10;;;;;;;;;23.25;22.50;;;;;13.65;69.02;101523.66;5683135;22;45831;-68
2021/10/25 18:17:43;;;;;;;;;;;;;;;;;;;;;
2021/10/25 18:27:13;;;;;;;;;15.50;14.75;;;;;15.62;67.63;101523.59;4683365;29;46107;-68
2021/10/25 18:29:50;;;;;;;;;13.75;11.25;;;;;15.67;67.13;101535.97;4746607;29;45997;-68
2021/10/25 18:34:55;;;;;;;;;;;;;;;;;;;;;
2021/10/25 18:40:23;;;;;;;;;14.00;13.50;;;;;15.61;67.30;101527.25;4889275;29;45784;-69
2021/10/25 19:03:59;;;;;;;;;14.50;12.75;;;;;15.67;67.33;101554.78;5504369;23;45816;-70
